Time;durP1;ratioP1;P1;durP2;ratioP2;P2;SDS_P1;SDS_P2;PMS_P1;PMS_P2;Temp;Humidity;BMP_temperature;BMP_pressure;BME280_temperature;BME280_humidity;BME280_pressure;Samples;Min_cycle;Max_cycle;Signal;HPM_P1;HPM_P2
2022/07/13 00:00:33;;;;;;;;;6.00;6.00;;;;;22.91;52.56;100859.73;110274;1264;19688;-65
2022/07/13 00:03:04;;;;;;;;;6.00;6.00;;;;;22.87;52.64;100862.26;110163;1264;21659;-66
2022/07/13 00:05:32;;;;;;;;;5.00;5.00;;;;;22.86;52.64;100859.63;110281;1265;18561;-65
2022/07/13 00:07:59;;;;;;;;;6.33;6.33;;;;;22.87;52.81;100855.05;110301;1264;19073;-66
2022/07/13 00:10:26;;;;;;;;;6.00;6.00;;;;;22.87;52.71;100847.91;110295;1264;22281;-68
2022/07/13 00:12:53;;;;;;;;;6.00;6.00;;;;;22.83;52.79;100850.99;110309;1264;18445;-64
2022/07/13 00:15:21;;;;;;;;;7.00;6.67;;;;;22.74;52.96;100845.86;110286;1264;18829;-67
2022/07/13 00:17:48;;;;;;;;;6.00;6.00;;;;;22.78;52.94;100849.11;110284;1265;19463;-64
2022/07/13 00:20:15;;;;;;;;;6.00;6.00;;;;;22.78;52.94;100847.00;110220;1264;20236;-66
2022/07/13 00:22:43;;;;;;;;;6.00;5.67;;;;;22.80;52.83;100846.16;110191;1264;18724;-66
2022/07/13 00:25:10;;;;;;;;;5.00;5.00;;;;;22.85;52.72;100847.45;110259;1264;21266;-65
2022/07/13 00:27:37;;;;;;;;;4.33;4.33;;;;;22.87;52.71;100842.11;110193;1265;19548;-66
2022/07/13 00:30:04;;;;;;;;;7.00;6.00;;;;;22.85;52.84;100837.44;110219;1264;19063;-66
2022/07/13 00:32:32;;;;;;;;;5.00;5.00;;;;;22.85;52.61;100842.20;110283;1264;19568;-64
2022/07/13 00:34:59;;;;;;;;;6.00;5.00;;;;;22.84;52.72;100838.58;110290;1264;18645;-65
2022/07/13 00:37:26;;;;;;;;;6.00;6.00;;;;;22.83;52.71;100836.17;110335;1264;21526;-69
2022/07/13 00:39:54;;;;;;;;;5.00;5.00;;;;;22.83;52.74;100833.66;110262;1264;19515;-65
2022/07/13 00:42:21;;;;;;;;;6.00;6.00;;;;;22.83;52.90;100835.77;110289;1264;18432;-67
2022/07/13 00:44:48;;;;;;;;;6.00;5.67;;;;;22.82;52.81;100830.41;110282;1265;18657;-66
2022/07/13 00:47:15;;;;;;;;;6.00;6.00;;;;;22.79;52.97;100835.04;110251;1264;19481;-65
2022/07/13 00:49:43;;;;;;;;;5.00;5.00;;;;;22.75;53.00;100837.34;110257;1264;21428;-65
2022/07/13 00:52:11;;;;;;;;;9.00;5.50;;;;;22.76;53.00;100839.07;110327;1264;19039;-65
2022/07/13 00:54:39;;;;;;;;;6.00;5.00;;;;;22.76;53.03;100835.91;110302;1264;19479;-64
2022/07/13 00:57:06;;;;;;;;;6.00;6.00;;;;;22.77;52.98;100834.31;110297;1265;18789;-66
2022/07/13 00:59:33;;;;;;;;;6.00;6.00;;;;;22.78;52.88;100833.35;110281;1264;18810;-65
2022/07/13 01:02:00;;;;;;;;;5.00;5.00;;;;;22.79;52.87;100832.18;110301;1264;19629;-66
2022/07/13 01:04:28;;;;;;;;;5.33;5.33;;;;;22.75;53.18;100831.10;110339;1264;18577;-68
2022/07/13 01:06:55;;;;;;;;;5.50;5.50;;;;;22.75;52.97;100829.55;110304;1264;18708;-66
2022/07/13 01:09:22;;;;;;;;;5.00;5.00;;;;;22.75;52.84;100827.29;110290;1264;20074;-65
2022/07/13 01:11:49;;;;;;;;;5.33;5.00;;;;;22.73;53.00;100829.95;110302;1264;18482;-66
2022/07/13 01:14:17;;;;;;;;;6.00;6.00;;;;;22.71;53.12;100827.27;110288;1264;18764;-66
2022/07/13 01:16:44;;;;;;;;;5.00;5.00;;;;;22.71;53.09;100828.95;110298;1264;19794;-65
2022/07/13 01:19:11;;;;;;;;;5.00;5.00;;;;;22.72;52.98;100826.48;110257;1264;18506;-65
2022/07/13 01:21:38;;;;;;;;;6.00;5.00;;;;;22.73;53.14;100821.00;110316;1265;19966;-66
2022/07/13 01:24:05;;;;;;;;;3.67;3.67;;;;;22.67;53.27;100820.24;110250;1264;24117;-66
2022/07/13 01:26:33;;;;;;;;;4.33;4.33;;;;;22.70;53.11;100818.30;110272;1265;18640;-66
2022/07/13 01:29:00;;;;;;;;;4.33;4.33;;;;;22.70;53.21;100818.42;110281;1264;20369;-66
2022/07/13 01:31:27;;;;;;;;;6.00;6.00;;;;;22.71;53.25;100811.66;110325;1264;20084;-65
2022/07/13 01:33:54;;;;;;;;;6.00;6.00;;;;;22.71;53.12;100810.34;110180;1265;20659;-65
2022/07/13 01:36:22;;;;;;;;;5.67;5.00;;;;;22.69;53.12;100803.79;110171;1264;18694;-67
2022/07/13 01:38:49;;;;;;;;;5.00;5.00;;;;;22.70;53.16;100809.04;110167;1264;19834;-65
2022/07/13 01:41:16;;;;;;;;;5.00;5.00;;;;;22.65;53.33;100811.96;110255;1264;18366;-66
2022/07/13 01:43:43;;;;;;;;;6.00;5.33;;;;;22.63;53.40;100808.90;110290;1264;20063;-64
2022/07/13 01:46:11;;;;;;;;;6.00;6.00;;;;;22.60;53.64;100806.43;110312;1264;19467;-63
2022/07/13 01:48:38;;;;;;;;;6.00;6.00;;;;;22.63;53.46;100808.91;110237;1264;18617;-66
2022/07/13 01:51:05;;;;;;;;;5.00;5.00;;;;;22.62;53.42;100804.29;110284;1264;18751;-65
2022/07/13 01:53:33;;;;;;;;;6.00;6.00;;;;;22.62;53.65;100805.50;110275;1264;21005;-65
2022/07/13 01:56:00;;;;;;;;;6.00;5.00;;;;;22.67;53.45;100797.88;110289;1264;21087;-67
2022/07/13 01:58:27;;;;;;;;;6.33;6.33;;;;;22.65;53.53;100803.39;110341;1264;18633;-66
2022/07/13 02:00:55;;;;;;;;;5.00;5.00;;;;;22.62;53.63;100804.48;110317;1264;19576;-66
2022/07/13 02:03:22;;;;;;;;;5.00;5.00;;;;;22.63;53.72;100802.18;110290;1264;18730;-66
2022/07/13 02:05:49;;;;;;;;;5.00;5.00;;;;;22.64;53.54;100795.23;110287;1265;18817;-65
2022/07/13 02:08:17;;;;;;;;;6.00;6.00;;;;;22.63;53.67;100788.11;110289;1264;19615;-66
2022/07/13 02:10:45;;;;;;;;;5.00;4.33;;;;;22.63;53.71;100787.89;110296;1264;18336;-65
2022/07/13 02:13:12;;;;;;;;;5.00;5.00;;;;;22.65;53.73;100788.29;110348;1264;19039;-66
2022/07/13 02:15:40;;;;;;;;;6.00;5.00;;;;;22.67;53.76;100791.70;110274;1264;21966;-65
2022/07/13 02:18:07;;;;;;;;;3.67;3.67;;;;;22.69;53.82;100789.61;110261;1264;19747;-66
2022/07/13 02:20:34;;;;;;;;;5.00;5.00;;;;;22.68;53.84;100783.05;110293;1264;19013;-64
2022/07/13 02:23:01;;;;;;;;;5.00;5.00;;;;;22.65;53.88;100783.13;110287;1265;19547;-67
2022/07/13 02:25:29;;;;;;;;;6.00;5.00;;;;;22.66;53.92;100782.66;110278;1264;18414;-65
2022/07/13 02:27:56;;;;;;;;;5.00;5.00;;;;;22.64;53.90;100782.58;110298;1264;22476;-65
2022/07/13 02:30:23;;;;;;;;;6.00;6.00;;;;;22.63;54.01;100780.41;110250;1264;19610;-66
2022/07/13 02:32:50;;;;;;;;;3.00;3.00;;;;;22.68;54.00;100779.77;110183;1264;22958;-65
2022/07/13 02:35:18;;;;;;;;;5.00;5.00;;;;;22.70;53.91;100777.17;110317;1264;18778;-66
2022/07/13 02:37:45;;;;;;;;;5.00;5.00;;;;;22.68;54.09;100771.90;110222;1265;19508;-67
2022/07/13 02:40:12;;;;;;;;;7.00;6.00;;;;;22.66;54.15;100774.86;110346;1264;18505;-65
2022/07/13 02:42:39;;;;;;;;;3.00;3.00;;;;;22.68;53.95;100775.02;110293;1265;18814;-66
2022/07/13 02:45:07;;;;;;;;;5.00;5.00;;;;;22.69;54.03;100783.44;110278;1265;21792;-68
2022/07/13 02:47:34;;;;;;;;;5.67;5.00;;;;;22.70;53.97;100785.17;110288;1264;18541;-66
2022/07/13 02:50:01;;;;;;;;;5.50;5.00;;;;;22.67;54.01;100785.86;110300;1264;18994;-64
2022/07/13 02:52:29;;;;;;;;;3.00;3.00;;;;;22.66;54.01;100784.13;110345;1264;22980;-65
2022/07/13 02:54:58;;;;;;;;;7.00;5.67;;;;;22.64;54.09;100779.25;110301;1264;18433;-66
2022/07/13 02:57:26;;;;;;;;;6.00;3.00;;;;;22.64;54.21;100778.91;110308;1265;18942;-66
2022/07/13 02:59:53;;;;;;;;;6.00;6.00;;;;;22.64;54.16;100775.27;110293;1264;19663;-65
2022/07/13 03:02:20;;;;;;;;;3.00;3.00;;;;;22.59;54.40;100775.94;110264;1264;23376;-66
2022/07/13 03:04:47;;;;;;;;;5.00;5.00;;;;;22.59;54.41;100775.02;110282;1264;18664;-66
2022/07/13 03:07:15;;;;;;;;;7.00;6.00;;;;;22.61;54.50;100770.77;110326;1265;19541;-67
2022/07/13 03:09:42;;;;;;;;;6.00;6.00;;;;;22.64;54.44;100769.30;110310;1265;22745;-66
2022/07/13 03:12:09;;;;;;;;;5.00;5.00;;;;;22.66;54.40;100771.73;110296;1264;22968;-65
2022/07/13 03:14:37;;;;;;;;;4.33;4.33;;;;;22.63;54.46;100771.59;110287;1264;19543;-65
2022/07/13 03:17:04;;;;;;;;;6.00;6.00;;;;;22.62;54.69;100769.85;110281;1264;18897;-66
2022/07/13 03:19:31;;;;;;;;;6.00;5.67;;;;;22.62;54.61;100766.79;110307;1264;19184;-65
2022/07/13 03:21:58;;;;;;;;;6.00;5.00;;;;;22.63;54.69;100769.44;110306;1264;19997;-66
2022/07/13 03:24:26;;;;;;;;;6.00;6.00;;;;;22.59;54.84;100769.34;110257;1264;18446;-66
2022/07/13 03:26:53;;;;;;;;;7.67;6.00;;;;;22.60;55.04;100768.52;110263;1264;18673;-67
2022/07/13 03:29:20;;;;;;;;;6.00;6.00;;;;;22.60;55.05;100767.15;110297;1264;19758;-67
2022/07/13 03:31:47;;;;;;;;;6.00;6.00;;;;;22.61;55.18;100765.80;110292;1264;23063;-66
2022/07/13 03:34:15;;;;;;;;;6.00;6.00;;;;;22.59;55.12;100766.48;110339;1264;18948;-65
2022/07/13 03:36:42;;;;;;;;;9.00;6.00;;;;;22.56;55.34;100766.40;110308;1264;20908;-67
2022/07/13 03:39:12;;;;;;;;;7.00;6.00;;;;;22.56;55.33;100760.60;110276;1264;18554;-65
2022/07/13 03:41:40;;;;;;;;;3.00;3.00;;;;;22.56;55.45;100764.64;110260;1265;18914;-66
2022/07/13 03:44:07;;;;;;;;;7.00;6.00;;;;;22.56;55.54;100763.54;110296;1264;20992;-66
2022/07/13 03:46:35;;;;;;;;;5.33;5.00;;;;;22.56;55.68;100761.56;110328;1265;22287;-66
2022/07/13 03:49:02;;;;;;;;;6.00;5.00;;;;;22.49;55.89;100759.88;110310;1265;18679;-65
2022/07/13 03:51:29;;;;;;;;;5.00;5.00;;;;;22.50;55.75;100763.13;110301;1264;19616;-64
2022/07/13 03:53:56;;;;;;;;;5.50;5.00;;;;;22.54;55.57;100762.09;110293;1265;18636;-65
2022/07/13 03:56:24;;;;;;;;;5.00;5.00;;;;;22.56;55.96;100764.64;110297;1264;18756;-67
2022/07/13 03:58:51;;;;;;;;;6.00;6.00;;;;;22.55;55.92;100764.35;110213;1265;19481;-65
2022/07/13 04:01:18;;;;;;;;;3.00;3.00;;;;;22.55;55.92;100770.77;110300;1263;18482;-65
2022/07/13 04:03:45;;;;;;;;;6.00;6.00;;;;;22.56;56.07;100770.94;110213;1264;18847;-65
2022/07/13 04:06:13;;;;;;;;;3.00;3.00;;;;;22.58;56.05;100769.49;110271;1264;19901;-65
2022/07/13 04:08:40;;;;;;;;;5.00;5.00;;;;;22.50;56.07;100772.63;110269;1264;22614;-67
2022/07/13 04:11:08;;;;;;;;;6.00;6.00;;;;;22.47;56.35;100777.23;110204;1264;18743;-66
2022/07/13 04:13:35;;;;;;;;;6.00;5.00;;;;;22.53;56.39;100783.26;110262;1263;22924;-65
2022/07/13 04:16:02;;;;;;;;;3.67;3.67;;;;;22.56;56.22;100778.84;110268;1264;22277;-65
2022/07/13 04:18:29;;;;;;;;;5.00;3.67;;;;;22.58;56.30;100777.79;110279;1264;18893;-66
2022/07/13 04:20:57;;;;;;;;;6.00;5.00;;;;;22.58;56.26;100777.15;110264;1265;19596;-66
2022/07/13 04:23:24;;;;;;;;;6.00;6.00;;;;;22.53;56.50;100777.38;110217;1264;22123;-64
2022/07/13 04:25:51;;;;;;;;;6.33;6.33;;;;;22.57;56.42;100779.38;110271;1264;18985;-66
2022/07/13 04:28:18;;;;;;;;;9.00;9.00;;;;;22.57;56.41;100780.55;110273;1264;19622;-65
2022/07/13 04:30:46;;;;;;;;;5.00;5.00;;;;;22.55;56.65;100777.08;110261;1265;18575;-66
2022/07/13 04:33:13;;;;;;;;;7.00;6.00;;;;;22.54;56.70;100778.15;110284;1264;19019;-68
2022/07/13 04:35:40;;;;;;;;;6.00;6.00;;;;;22.55;56.92;100779.89;110263;1264;19604;-66
2022/07/13 04:38:07;;;;;;;;;8.00;7.00;;;;;22.58;56.84;100781.98;110303;1264;18687;-65
2022/07/13 04:40:35;;;;;;;;;6.67;6.00;;;;;22.62;56.99;100779.56;110258;1264;18897;-67
2022/07/13 04:43:02;;;;;;;;;6.67;6.67;;;;;22.60;56.97;100783.42;110279;1264;19549;-66
2022/07/13 04:45:29;;;;;;;;;9.00;9.00;;;;;22.57;57.39;100775.98;110205;1264;18545;-64
2022/07/13 04:47:56;;;;;;;;;9.00;9.00;;;;;22.59;57.54;100776.66;110300;1264;18859;-64
2022/07/13 04:50:24;;;;;;;;;10.00;9.00;;;;;22.59;57.78;100773.55;110257;1264;21808;-66
2022/07/13 04:52:51;;;;;;;;;10.67;10.00;;;;;22.67;57.52;100777.23;110255;1264;18877;-66
2022/07/13 04:55:18;;;;;;;;;9.50;9.00;;;;;22.73;57.68;100776.27;110323;1264;19060;-66
2022/07/13 04:57:45;;;;;;;;;11.33;9.00;;;;;22.75;57.73;100775.06;110181;1263;19493;-66
2022/07/13 05:00:13;;;;;;;;;13.33;10.67;;;;;22.71;58.18;100775.32;110288;1265;18582;-67
2022/07/13 05:02:40;;;;;;;;;10.33;10.00;;;;;22.68;58.37;100773.00;110253;1264;18770;-66
2022/07/13 05:05:07;;;;;;;;;12.00;11.00;;;;;22.65;58.39;100776.38;110294;1264;22348;-66
2022/07/13 05:07:34;;;;;;;;;10.00;9.00;;;;;22.68;58.43;100779.22;110309;1264;20220;-66
2022/07/13 05:10:02;;;;;;;;;11.00;11.00;;;;;22.70;58.38;100791.48;110284;1265;19181;-66
2022/07/13 05:12:29;;;;;;;;;16.00;14.33;;;;;22.67;58.73;100790.02;110271;1264;20672;-66
2022/07/13 05:14:57;;;;;;;;;15.00;11.00;;;;;22.63;58.87;100779.95;110225;1264;18711;-66
2022/07/13 05:17:24;;;;;;;;;9.00;9.00;;;;;22.62;58.90;100776.41;110266;1264;18749;-66
2022/07/13 05:19:51;;;;;;;;;9.00;9.00;;;;;22.61;58.88;100772.70;110267;1264;19739;-65
2022/07/13 05:22:18;;;;;;;;;9.00;9.00;;;;;22.67;58.97;100772.15;110324;1264;20639;-66
2022/07/13 05:24:46;;;;;;;;;7.67;7.67;;;;;22.73;58.84;100771.73;110258;1264;20033;-67
2022/07/13 05:27:13;;;;;;;;;9.00;7.00;;;;;22.76;58.54;100771.43;110233;1265;21075;-65
2022/07/13 05:29:40;;;;;;;;;7.00;7.00;;;;;22.76;58.62;100770.14;110199;1265;20486;-66
2022/07/13 05:32:07;;;;;;;;;6.00;6.00;;;;;22.80;58.59;100774.02;110266;1265;18729;-65
2022/07/13 05:34:35;;;;;;;;;9.00;7.67;;;;;22.83;58.52;100775.90;110230;1265;20342;-63
2022/07/13 05:37:02;;;;;;;;;9.00;7.00;;;;;22.85;58.57;100778.79;110237;1265;18711;-64
2022/07/13 05:39:29;;;;;;;;;9.00;7.00;;;;;22.84;58.51;100778.28;110250;1265;18737;-65
2022/07/13 05:41:56;;;;;;;;;11.33;11.33;;;;;22.87;58.55;100777.58;110226;1265;19466;-67
2022/07/13 05:44:24;;;;;;;;;10.00;10.00;;;;;22.89;58.52;100782.83;110237;1264;19063;-66
2022/07/13 05:46:51;;;;;;;;;10.00;10.00;;;;;22.91;58.68;100785.09;110226;1264;19080;-66
2022/07/13 05:49:18;;;;;;;;;7.00;7.00;;;;;22.89;58.68;100786.91;110336;1264;19568;-66
2022/07/13 05:51:45;;;;;;;;;7.00;6.00;;;;;22.91;58.48;100785.00;110252;1265;18680;-66
2022/07/13 05:54:13;;;;;;;;;7.00;7.00;;;;;22.94;58.50;100786.75;110302;1264;19135;-66
2022/07/13 05:56:40;;;;;;;;;9.00;7.00;;;;;22.90;58.61;100787.20;110206;1264;19670;-66
2022/07/13 05:59:08;;;;;;;;;9.00;9.00;;;;;22.81;59.03;100786.98;110276;1264;22294;-66
2022/07/13 06:01:35;;;;;;;;;7.00;7.00;;;;;22.77;59.59;100790.96;110278;1265;23836;-66
2022/07/13 06:04:02;;;;;;;;;10.00;10.00;;;;;22.88;59.57;100788.80;110315;1265;20241;-66
2022/07/13 06:06:29;;;;;;;;;10.00;9.00;;;;;22.96;59.32;100791.08;110208;1265;18473;-65
2022/07/13 06:08:57;;;;;;;;;7.67;7.00;;;;;23.09;59.37;100794.35;110232;1264;20282;-64
2022/07/13 06:11:24;;;;;;;;;9.33;6.33;;;;;23.08;59.23;100799.64;110272;1264;19569;-65
2022/07/13 06:13:51;;;;;;;;;7.00;6.50;;;;;22.99;59.47;100796.75;110275;1264;21637;-66
2022/07/13 06:16:18;;;;;;;;;7.00;7.00;;;;;23.07;59.36;100799.26;110177;1264;20097;-63
2022/07/13 06:18:46;;;;;;;;;6.00;5.33;;;;;23.10;59.05;100806.45;110183;1265;20991;-66
2022/07/13 06:21:13;;;;;;;;;6.67;6.67;;;;;23.18;58.87;100813.99;110250;1265;18616;-67
2022/07/13 06:23:40;;;;;;;;;6.50;6.00;;;;;23.22;58.73;100809.30;110206;1265;22197;-67
2022/07/13 06:26:07;;;;;;;;;5.00;5.00;;;;;23.23;58.60;100807.05;110266;1264;19773;-67
2022/07/13 06:28:35;;;;;;;;;5.33;5.33;;;;;23.24;58.29;100798.11;110314;1264;18511;-65
2022/07/13 06:31:02;;;;;;;;;5.00;5.00;;;;;23.32;58.00;100798.24;110196;1264;18782;-65
2022/07/13 06:33:29;;;;;;;;;5.00;5.00;;;;;23.32;57.47;100798.05;110236;1264;19645;-67
2022/07/13 06:35:57;;;;;;;;;5.00;5.00;;;;;23.35;57.20;100794.88;110305;1265;18573;-66
2022/07/13 06:38:24;;;;;;;;;5.00;5.00;;;;;23.41;56.81;100801.84;110269;1265;20001;-66
2022/07/13 06:40:51;;;;;;;;;6.00;5.33;;;;;23.43;56.36;100804.98;110261;1264;20860;-67
2022/07/13 06:43:18;;;;;;;;;5.67;5.67;;;;;23.40;56.46;100797.93;110281;1265;18632;-65
2022/07/13 06:45:46;;;;;;;;;6.33;6.00;;;;;23.47;56.28;100789.54;110280;1265;18799;-64
2022/07/13 06:48:14;;;;;;;;;5.00;5.00;;;;;23.57;56.05;100784.90;110299;1264;19795;-66
2022/07/13 06:50:41;;;;;;;;;7.00;6.67;;;;;23.66;56.41;100783.55;110281;1265;20601;-66
2022/07/13 06:53:08;;;;;;;;;6.00;5.00;;;;;23.79;56.06;100787.21;110305;1264;18620;-65
2022/07/13 06:55:36;;;;;;;;;6.67;6.00;;;;;23.90;55.58;100788.80;110304;1264;19543;-64
2022/07/13 06:58:03;;;;;;;;;6.00;6.00;;;;;23.98;55.45;100792.19;110267;1264;18623;-66
2022/07/13 07:00:30;;;;;;;;;7.00;6.00;;;;;24.01;55.16;100793.34;110220;1264;22297;-68
2022/07/13 07:02:58;;;;;;;;;6.67;6.33;;;;;24.04;55.16;100788.70;110121;1265;19563;-65
2022/07/13 07:05:25;;;;;;;;;5.67;5.67;;;;;24.04;55.03;100791.48;110223;1264;18702;-67
2022/07/13 07:07:52;;;;;;;;;8.00;6.00;;;;;24.08;54.72;100795.31;110249;1264;21691;-66
2022/07/13 07:10:20;;;;;;;;;6.33;6.33;;;;;24.13;54.38;100801.89;110238;1264;19779;-64
2022/07/13 07:12:47;;;;;;;;;6.00;5.67;;;;;24.13;54.32;100809.17;110223;1264;18693;-66
2022/07/13 07:15:14;;;;;;;;;6.67;6.67;;;;;24.15;54.17;100805.02;110232;1265;18815;-63
2022/07/13 07:17:41;;;;;;;;;5.67;5.67;;;;;24.19;53.70;100799.91;110186;1265;19829;-65
2022/07/13 07:20:09;;;;;;;;;5.67;5.67;;;;;24.24;53.40;100802.86;110179;1265;20012;-67
2022/07/13 07:22:36;;;;;;;;;6.50;6.50;;;;;24.30;53.04;100801.94;110225;1264;23379;-64
2022/07/13 07:25:03;;;;;;;;;6.67;6.33;;;;;24.34;52.90;100799.69;110146;1264;19664;-64
2022/07/13 07:27:30;;;;;;;;;5.00;5.00;;;;;24.41;52.58;100801.46;110136;1264;18638;-66
2022/07/13 07:29:58;;;;;;;;;5.67;5.67;;;;;24.48;52.23;100806.20;110108;1264;18824;-62
2022/07/13 07:32:26;;;;;;;;;5.67;5.67;;;;;24.47;51.98;100803.95;110096;1265;19575;-64
2022/07/13 07:34:53;;;;;;;;;6.67;6.33;;;;;24.51;51.47;100806.73;110159;1264;18445;-66
2022/07/13 07:37:21;;;;;;;;;7.00;7.00;;;;;24.53;51.28;100805.97;110235;1265;18886;-67
2022/07/13 07:39:48;;;;;;;;;8.00;8.00;;;;;24.61;51.02;100807.33;110159;1264;19698;-66
2022/07/13 07:42:16;;;;;;;;;5.50;5.50;;;;;24.65;50.66;100805.45;109590;1265;627796;-64
2022/07/13 07:44:43;;;;;;;;;9.33;9.33;;;;;24.62;50.77;100796.85;110165;1264;18979;-63
2022/07/13 07:47:10;;;;;;;;;6.00;6.00;;;;;24.70;50.69;100806.75;110088;1264;21011;-64
2022/07/13 07:49:37;;;;;;;;;7.00;7.00;;;;;24.73;50.66;100805.64;110199;1264;22683;-61
2022/07/13 07:52:05;;;;;;;;;9.00;8.00;;;;;24.70;50.61;100807.86;110199;1265;18954;-66
2022/07/13 07:54:33;;;;;;;;;8.00;8.00;;;;;24.65;50.39;100810.05;110239;1264;19620;-66
2022/07/13 07:57:00;;;;;;;;;8.00;7.00;;;;;24.56;50.54;100813.70;110262;1264;18502;-65
2022/07/13 07:59:27;;;;;;;;;5.00;5.00;;;;;24.49;50.31;100822.10;110163;1265;18789;-65
2022/07/13 08:01:54;;;;;;;;;8.00;8.00;;;;;24.48;50.36;100826.16;110242;1264;19504;-67
2022/07/13 08:04:22;;;;;;;;;8.00;8.00;;;;;24.58;50.61;100826.10;110236;1265;20280;-68
2022/07/13 08:06:49;;;;;;;;;7.67;7.67;;;;;24.60;50.62;100830.45;110174;1264;18612;-68
2022/07/13 08:09:16;;;;;;;;;7.67;7.67;;;;;24.53;50.67;100832.58;110184;1264;20930;-62
2022/07/13 08:11:43;;;;;;;;;8.00;8.00;;;;;24.52;50.64;100834.88;110127;1264;18680;-66
2022/07/13 08:14:11;;;;;;;;;8.00;7.33;;;;;24.51;50.88;100836.65;110123;1265;22764;-67
2022/07/13 08:16:39;;;;;;;;;7.00;6.00;;;;;24.51;51.01;100837.73;110292;1264;19500;-65
2022/07/13 08:19:06;;;;;;;;;8.67;8.67;;;;;24.46;51.10;100837.02;110242;1264;18639;-66
2022/07/13 08:21:34;;;;;;;;;11.00;10.33;;;;;24.41;51.35;100840.23;110272;1265;18789;-66
2022/07/13 08:24:01;;;;;;;;;9.33;9.33;;;;;24.38;51.48;100844.80;110239;1264;19496;-66
2022/07/13 08:26:28;;;;;;;;;10.33;10.33;;;;;24.33;51.71;100844.89;110259;1264;18747;-65
2022/07/13 08:28:55;;;;;;;;;10.00;10.00;;;;;24.31;51.83;100851.71;110225;1264;18934;-64
2022/07/13 08:31:23;;;;;;;;;13.00;13.00;;;;;24.33;51.82;100852.33;110220;1264;19605;-68
2022/07/13 08:39:20;;;;;;;;;7.67;6.33;;;;;24.10;52.14;100855.82;110157;1265;22207;-65
2022/07/13 08:41:47;;;;;;;;;5.00;5.00;;;;;24.06;52.23;100849.17;110107;1264;19214;-67
2022/07/13 08:44:15;;;;;;;;;6.00;6.00;;;;;24.01;52.45;100848.81;110157;1265;18776;-66
2022/07/13 08:46:42;;;;;;;;;5.67;5.67;;;;;23.99;52.17;100844.80;110141;1265;19675;-65
2022/07/13 08:49:09;;;;;;;;;6.00;5.50;;;;;24.05;52.14;100843.19;110279;1264;18713;-66
2022/07/13 08:51:37;;;;;;;;;5.33;5.33;;;;;24.13;52.23;100840.10;110168;1264;18705;-66
2022/07/13 08:54:05;;;;;;;;;7.00;6.50;;;;;24.11;52.10;100841.13;110124;1264;19547;-67
2022/07/13 08:56:32;;;;;;;;;6.00;6.00;;;;;24.09;52.31;100841.16;110119;1264;22830;-66
2022/07/13 08:59:00;;;;;;;;;8.00;7.00;;;;;24.15;52.29;100836.48;110123;1264;19161;-65
2022/07/13 09:01:27;;;;;;;;;7.00;6.50;;;;;24.25;52.29;100841.16;110203;1264;19675;-66
2022/07/13 09:03:54;;;;;;;;;8.33;8.33;;;;;24.29;52.43;100848.41;110173;1264;22702;-65
2022/07/13 09:06:21;;;;;;;;;9.00;9.00;;;;;24.31;52.24;100851.50;110128;1265;18783;-65
2022/07/13 09:08:49;;;;;;;;;7.67;7.67;;;;;24.25;52.41;100847.11;110151;1265;19470;-68
2022/07/13 09:11:16;;;;;;;;;10.50;9.50;;;;;24.26;52.64;100843.40;110225;1264;18422;-68
2022/07/13 09:13:44;;;;;;;;;8.00;8.00;;;;;24.17;52.75;100843.20;110134;1264;21605;-66
2022/07/13 09:16:11;;;;;;;;;9.33;9.33;;;;;24.05;52.77;100855.02;110043;1264;20350;-65
2022/07/13 09:18:39;;;;;;;;;8.67;6.67;;;;;24.03;53.04;100854.37;110225;1264;18295;-65
2022/07/13 09:21:06;;;;;;;;;8.67;7.67;;;;;24.00;53.19;100851.41;110113;1264;18913;-65
2022/07/13 09:23:33;;;;;;;;;7.00;7.00;;;;;23.98;53.22;100846.40;110236;1264;19531;-64
2022/07/13 09:26:00;;;;;;;;;8.50;7.00;;;;;23.98;53.21;100841.98;110222;1265;18729;-66
2022/07/13 09:28:28;;;;;;;;;4.00;4.00;;;;;23.99;53.11;100836.93;110218;1264;19023;-65
2022/07/13 09:30:55;;;;;;;;;6.33;6.33;;;;;24.01;53.27;100830.77;110213;1264;19624;-67
2022/07/13 09:33:23;;;;;;;;;6.00;6.00;;;;;24.09;53.36;100830.33;110161;1264;18843;-65
2022/07/13 09:35:53;;;;;;;;;3.00;3.00;;;;;24.14;53.37;100834.63;110259;1264;18991;-63
2022/07/13 09:38:20;;;;;;;;;7.00;5.33;;;;;24.19;53.11;100835.30;110220;1264;19918;-60
2022/07/13 09:40:47;;;;;;;;;7.67;7.33;;;;;24.31;52.49;100839.42;110245;1264;18624;-63
2022/07/13 09:46:12;;;;;;;;;6.67;6.67;;;;;24.41;51.34;100842.17;110244;1265;19469;-65
2022/07/13 09:48:39;;;;;;;;;6.33;6.33;;;;;24.40;50.81;100839.55;110224;1264;22559;-65
2022/07/13 09:51:07;;;;;;;;;5.50;5.50;;;;;24.36;50.20;100838.59;110260;1264;19000;-65
2022/07/13 09:53:36;;;;;;;;;6.67;6.67;;;;;24.33;49.78;100839.19;110239;1264;20408;-67
2022/07/13 09:56:03;;;;;;;;;6.33;6.33;;;;;24.31;49.34;100840.20;110265;1264;18515;-65
2022/07/13 09:58:31;;;;;;;;;6.33;6.33;;;;;24.38;49.24;100838.73;110261;1264;18801;-65
2022/07/13 10:00:58;;;;;;;;;8.00;8.00;;;;;24.51;49.10;100844.15;110249;1264;22775;-66
2022/07/13 10:03:25;;;;;;;;;10.00;10.00;;;;;24.65;48.89;100845.98;110203;1264;18758;-65
2022/07/13 10:05:52;;;;;;;;;6.00;6.00;;;;;24.77;48.86;100838.35;110188;1264;18787;-65
2022/07/13 10:08:19;;;;;;;;;5.33;5.33;;;;;24.79;48.74;100837.52;110240;1264;21009;-66
2022/07/13 10:10:47;;;;;;;;;5.00;4.00;;;;;24.83;48.77;100835.97;110203;1264;18479;-67
2022/07/13 10:13:14;;;;;;;;;9.00;9.00;;;;;24.87;48.63;100835.23;110275;1264;19186;-65
2022/07/13 10:15:41;;;;;;;;;6.00;6.00;;;;;24.94;48.40;100836.92;110246;1264;19682;-65
2022/07/13 10:18:09;;;;;;;;;8.00;8.00;;;;;24.97;48.21;100833.35;110175;1264;18820;-65
2022/07/13 10:20:37;;;;;;;;;8.50;8.00;;;;;25.08;48.06;100833.57;110259;1264;18783;-65
2022/07/13 10:23:04;;;;;;;;;10.00;9.00;;;;;25.10;48.03;100833.38;110267;1264;19534;-66
2022/07/13 10:25:31;;;;;;;;;8.50;8.50;;;;;25.10;47.79;100830.21;110297;1264;20040;-64
2022/07/13 10:27:59;;;;;;;;;11.00;10.33;;;;;25.09;47.87;100829.73;110268;1264;18765;-65
2022/07/13 10:30:26;;;;;;;;;7.33;7.00;;;;;25.08;48.03;100829.31;110261;1264;19512;-65
2022/07/13 10:32:53;;;;;;;;;8.00;8.00;;;;;25.11;48.15;100828.27;110249;1265;18895;-65
2022/07/13 10:35:21;;;;;;;;;7.00;7.00;;;;;25.10;48.26;100829.10;110275;1264;18678;-66
2022/07/13 10:37:48;;;;;;;;;7.00;7.00;;;;;25.13;48.27;100820.17;110273;1265;19565;-67
2022/07/13 10:40:15;;;;;;;;;8.33;8.33;;;;;25.05;48.39;100821.42;110299;1264;18990;-65
2022/07/13 10:42:43;;;;;;;;;6.00;6.00;;;;;25.00;48.24;100824.98;110208;1264;19800;-63
2022/07/13 10:45:10;;;;;;;;;9.00;9.00;;;;;24.96;48.26;100823.87;110219;1265;20143;-64
2022/07/13 10:47:38;;;;;;;;;9.00;9.00;;;;;24.95;48.44;100828.02;110181;1265;18814;-65
2022/07/13 10:50:05;;;;;;;;;12.00;11.00;;;;;24.97;48.53;100823.73;110290;1264;22818;-65
2022/07/13 10:52:32;;;;;;;;;7.00;7.00;;;;;24.93;48.87;100821.09;110270;1264;19518;-66
2022/07/13 10:55:02;;;;;;;;;8.00;8.00;;;;;24.89;49.05;100822.05;110300;1264;18735;-66
2022/07/13 10:57:29;;;;;;;;;9.00;9.00;;;;;24.86;49.37;100816.80;110271;1264;18849;-66
2022/07/13 10:59:56;;;;;;;;;9.00;9.00;;;;;24.73;49.56;100822.64;110294;1265;19666;-64
2022/07/13 11:02:23;;;;;;;;;9.00;9.00;;;;;24.58;49.80;100819.28;110263;1264;18623;-66
2022/07/13 11:04:53;;;;;;;;;11.00;11.00;;;;;24.50;50.30;100819.02;110290;1264;18806;-63
2022/07/13 11:07:20;;;;;;;;;8.00;8.00;;;;;24.43;50.37;100822.00;110309;1264;19493;-65
2022/07/13 11:09:48;;;;;;;;;8.00;8.00;;;;;24.39;50.68;100823.41;110293;1264;18766;-65
2022/07/13 11:12:15;;;;;;;;;10.00;9.33;;;;;24.39;50.73;100823.45;110287;1264;18763;-64
2022/07/13 11:14:43;;;;;;;;;11.33;11.33;;;;;24.41;51.01;100827.97;110263;1265;19470;-66
2022/07/13 11:17:10;;;;;;;;;7.00;7.00;;;;;24.41;51.24;100825.31;110149;1265;22807;-66
2022/07/13 11:19:37;;;;;;;;;9.67;8.00;;;;;24.43;51.45;100825.46;110276;1264;21039;-65
2022/07/13 11:22:05;;;;;;;;;8.00;8.00;;;;;24.44;51.28;100831.77;110232;1265;20500;-66
2022/07/13 11:27:17;;;;;;;;;10.00;10.00;;;;;24.49;51.15;100824.75;110278;1265;18995;-65